sensor_id;sensor_type;location;lat;lon;timestamp;P1;durP1;ratioP1;P2;durP2;ratioP2
70140;SDS011;74814;43.148;0.176;2024-02-21T00:00:10;1.48;;;1.38;;
70140;SDS011;74814;43.148;0.176;2024-02-21T00:02:36;0.95;;;0.95;;
70140;SDS011;74814;43.148;0.176;2024-02-21T00:05:02;1.00;;;1.00;;
70140;SDS011;74814;43.148;0.176;2024-02-21T00:07:27;1.00;;;1.00;;
70140;SDS011;74814;43.148;0.176;2024-02-21T00:09:53;2.45;;;2.08;;
70140;SDS011;74814;43.148;0.176;2024-02-21T00:12:18;1.05;;;1.05;;
70140;SDS011;74814;43.148;0.176;2024-02-21T00:14:43;1.25;;;1.23;;
70140;SDS011;74814;43.148;0.176;2024-02-21T00:17:08;0.90;;;0.90;;
70140;SDS011;74814;43.148;0.176;2024-02-21T00:19:34;1.08;;;1.08;;
70140;SDS011;74814;43.148;0.176;2024-02-21T00:21:59;0.90;;;0.90;;
70140;SDS011;74814;43.148;0.176;2024-02-21T00:24:24;1.00;;;1.00;;
70140;SDS011;74814;43.148;0.176;2024-02-21T00:26:49;1.90;;;1.80;;
70140;SDS011;74814;43.148;0.176;2024-02-21T00:29:15;1.52;;;1.42;;
70140;SDS011;74814;43.148;0.176;2024-02-21T00:31:40;1.55;;;1.45;;
70140;SDS011;74814;43.148;0.176;2024-02-21T00:34:05;1.00;;;1.00;;
70140;SDS011;74814;43.148;0.176;2024-02-21T00:36:30;0.98;;;0.98;;
70140;SDS011;74814;43.148;0.176;2024-02-21T00:38:55;0.90;;;0.90;;
70140;SDS011;74814;43.148;0.176;2024-02-21T00:41:21;0.80;;;0.80;;
70140;SDS011;74814;43.148;0.176;2024-02-21T00:43:46;0.90;;;0.90;;
70140;SDS011;74814;43.148;0.176;2024-02-21T00:46:13;1.02;;;1.02;;
70140;SDS011;74814;43.148;0.176;2024-02-21T00:48:38;1.30;;;1.20;;
70140;SDS011;74814;43.148;0.176;2024-02-21T00:51:04;1.58;;;1.20;;
70140;SDS011;74814;43.148;0.176;2024-02-21T00:53:29;1.15;;;1.10;;
70140;SDS011;74814;43.148;0.176;2024-02-21T00:55:54;1.58;;;1.45;;
70140;SDS011;74814;43.148;0.176;2024-02-21T00:58:21;0.90;;;0.90;;
70140;SDS011;74814;43.148;0.176;2024-02-21T01:00:47;1.27;;;1.02;;
70140;SDS011;74814;43.148;0.176;2024-02-21T01:03:12;0.90;;;0.90;;
70140;SDS011;74814;43.148;0.176;2024-02-21T01:05:37;0.80;;;0.80;;
70140;SDS011;74814;43.148;0.176;2024-02-21T01:08:02;0.90;;;0.90;;
70140;SDS011;74814;43.148;0.176;2024-02-21T01:10:28;0.80;;;0.80;;
70140;SDS011;74814;43.148;0.176;2024-02-21T01:12:53;0.90;;;0.90;;
70140;SDS011;74814;43.148;0.176;2024-02-21T01:15:18;0.80;;;0.80;;
70140;SDS011;74814;43.148;0.176;2024-02-21T01:17:43;0.80;;;0.80;;
70140;SDS011;74814;43.148;0.176;2024-02-21T01:20:09;0.70;;;0.70;;
70140;SDS011;74814;43.148;0.176;2024-02-21T01:22:34;0.80;;;0.80;;
70140;SDS011;74814;43.148;0.176;2024-02-21T01:24:59;0.70;;;0.70;;
70140;SDS011;74814;43.148;0.176;2024-02-21T01:27:24;0.70;;;0.70;;
70140;SDS011;74814;43.148;0.176;2024-02-21T01:29:50;0.70;;;0.70;;
70140;SDS011;74814;43.148;0.176;2024-02-21T01:32:15;0.82;;;0.82;;
70140;SDS011;74814;43.148;0.176;2024-02-21T01:34:40;0.77;;;0.77;;
70140;SDS011;74814;43.148;0.176;2024-02-21T01:37:06;0.73;;;0.73;;
70140;SDS011;74814;43.148;0.176;2024-02-21T01:39:32;0.80;;;0.80;;
70140;SDS011;74814;43.148;0.176;2024-02-21T01:41:57;0.70;;;0.70;;
70140;SDS011;74814;43.148;0.176;2024-02-21T01:44:23;0.70;;;0.70;;
70140;SDS011;74814;43.148;0.176;2024-02-21T01:46:48;0.82;;;0.82;;
70140;SDS011;74814;43.148;0.176;2024-02-21T01:49:14;0.80;;;0.75;;
70140;SDS011;74814;43.148;0.176;2024-02-21T01:51:39;0.80;;;0.80;;
70140;SDS011;74814;43.148;0.176;2024-02-21T01:54:05;0.80;;;0.80;;
70140;SDS011;74814;43.148;0.176;2024-02-21T01:56:30;0.70;;;0.70;;
70140;SDS011;74814;43.148;0.176;2024-02-21T01:58:56;1.35;;;1.25;;
70140;SDS011;74814;43.148;0.176;2024-02-21T02:01:21;0.80;;;0.80;;
70140;SDS011;74814;43.148;0.176;2024-02-21T02:03:46;1.40;;;1.13;;
70140;SDS011;74814;43.148;0.176;2024-02-21T02:06:12;1.02;;;1.02;;
70140;SDS011;74814;43.148;0.176;2024-02-21T02:08:37;0.80;;;0.80;;
70140;SDS011;74814;43.148;0.176;2024-02-21T02:11:02;0.70;;;0.70;;
70140;SDS011;74814;43.148;0.176;2024-02-21T02:13:28;1.23;;;1.13;;
70140;SDS011;74814;43.148;0.176;2024-02-21T02:15:53;0.80;;;0.80;;
70140;SDS011;74814;43.148;0.176;2024-02-21T02:18:19;0.73;;;0.73;;
70140;SDS011;74814;43.148;0.176;2024-02-21T02:20:44;0.70;;;0.70;;
70140;SDS011;74814;43.148;0.176;2024-02-21T02:23:11;0.70;;;0.70;;
70140;SDS011;74814;43.148;0.176;2024-02-21T02:25:37;0.80;;;0.80;;
70140;SDS011;74814;43.148;0.176;2024-02-21T02:28:03;0.70;;;0.70;;
70140;SDS011;74814;43.148;0.176;2024-02-21T02:30:28;0.85;;;0.85;;
70140;SDS011;74814;43.148;0.176;2024-02-21T02:32:54;0.70;;;0.70;;
70140;SDS011;74814;43.148;0.176;2024-02-21T02:35:19;0.70;;;0.70;;
70140;SDS011;74814;43.148;0.176;2024-02-21T02:37:48;0.70;;;0.70;;
70140;SDS011;74814;43.148;0.176;2024-02-21T02:40:14;0.80;;;0.80;;
70140;SDS011;74814;43.148;0.176;2024-02-21T02:42:39;0.80;;;0.80;;
70140;SDS011;74814;43.148;0.176;2024-02-21T02:45:05;0.70;;;0.70;;
70140;SDS011;74814;43.148;0.176;2024-02-21T02:47:30;3.55;;;1.42;;
70140;SDS011;74814;43.148;0.176;2024-02-21T02:49:55;0.90;;;0.90;;
70140;SDS011;74814;43.148;0.176;2024-02-21T02:52:21;0.70;;;0.70;;
70140;SDS011;74814;43.148;0.176;2024-02-21T02:54:46;0.60;;;0.60;;
70140;SDS011;74814;43.148;0.176;2024-02-21T02:57:16;2.15;;;0.90;;
70140;SDS011;74814;43.148;0.176;2024-02-21T02:59:42;0.70;;;0.70;;
70140;SDS011;74814;43.148;0.176;2024-02-21T03:02:07;0.60;;;0.60;;
70140;SDS011;74814;43.148;0.176;2024-02-21T03:04:32;0.80;;;0.80;;
70140;SDS011;74814;43.148;0.176;2024-02-21T03:06:58;0.70;;;0.70;;
70140;SDS011;74814;43.148;0.176;2024-02-21T03:09:23;0.93;;;0.93;;
70140;SDS011;74814;43.148;0.176;2024-02-21T03:11:48;1.08;;;1.00;;
70140;SDS011;74814;43.148;0.176;2024-02-21T03:14:13;0.70;;;0.70;;
70140;SDS011;74814;43.148;0.176;2024-02-21T03:16:38;0.80;;;0.80;;
70140;SDS011;74814;43.148;0.176;2024-02-21T03:19:04;0.70;;;0.70;;
70140;SDS011;74814;43.148;0.176;2024-02-21T03:21:29;0.80;;;0.80;;
70140;SDS011;74814;43.148;0.176;2024-02-21T03:23:54;0.80;;;0.80;;
70140;SDS011;74814;43.148;0.176;2024-02-21T03:26:19;0.90;;;0.90;;
70140;SDS011;74814;43.148;0.176;2024-02-21T03:28:45;0.80;;;0.80;;
70140;SDS011;74814;43.148;0.176;2024-02-21T03:31:13;1.08;;;1.00;;
70140;SDS011;74814;43.148;0.176;2024-02-21T03:33:39;0.80;;;0.80;;
70140;SDS011;74814;43.148;0.176;2024-02-21T03:36:05;0.80;;;0.80;;
70140;SDS011;74814;43.148;0.176;2024-02-21T03:38:30;0.88;;;0.88;;
70140;SDS011;74814;43.148;0.176;2024-02-21T03:40:56;0.80;;;0.80;;
70140;SDS011;74814;43.148;0.176;2024-02-21T03:43:21;0.70;;;0.70;;
70140;SDS011;74814;43.148;0.176;2024-02-21T03:45:46;0.80;;;0.80;;
70140;SDS011;74814;43.148;0.176;2024-02-21T03:48:11;0.80;;;0.80;;
70140;SDS011;74814;43.148;0.176;2024-02-21T03:50:37;0.90;;;0.90;;
70140;SDS011;74814;43.148;0.176;2024-02-21T03:53:02;0.80;;;0.80;;
70140;SDS011;74814;43.148;0.176;2024-02-21T03:55:27;0.80;;;0.80;;
70140;SDS011;74814;43.148;0.176;2024-02-21T03:57:52;0.90;;;0.90;;
70140;SDS011;74814;43.148;0.176;2024-02-21T04:00:18;0.80;;;0.80;;
70140;SDS011;74814;43.148;0.176;2024-02-21T04:02:43;1.42;;;0.90;;
70140;SDS011;74814;43.148;0.176;2024-02-21T04:05:08;0.80;;;0.80;;
70140;SDS011;74814;43.148;0.176;2024-02-21T04:07:36;0.80;;;0.80;;
70140;SDS011;74814;43.148;0.176;2024-02-21T04:10:01;0.90;;;0.90;;
70140;SDS011;74814;43.148;0.176;2024-02-21T04:12:26;0.80;;;0.80;;
70140;SDS011;74814;43.148;0.176;2024-02-21T04:14:51;0.88;;;0.88;;
70140;SDS011;74814;43.148;0.176;2024-02-21T04:17:17;0.80;;;0.80;;
70140;SDS011;74814;43.148;0.176;2024-02-21T04:19:42;0.80;;;0.80;;
70140;SDS011;74814;43.148;0.176;2024-02-21T04:22:07;0.70;;;0.70;;
70140;SDS011;74814;43.148;0.176;2024-02-21T04:24:32;0.80;;;0.80;;
70140;SDS011;74814;43.148;0.176;2024-02-21T04:26:58;0.70;;;0.70;;
70140;SDS011;74814;43.148;0.176;2024-02-21T04:29:23;0.80;;;0.80;;
70140;SDS011;74814;43.148;0.176;2024-02-21T04:31:49;0.80;;;0.80;;
70140;SDS011;74814;43.148;0.176;2024-02-21T04:34:14;0.70;;;0.70;;
70140;SDS011;74814;43.148;0.176;2024-02-21T04:36:39;0.70;;;0.70;;
70140;SDS011;74814;43.148;0.176;2024-02-21T04:39:04;0.70;;;0.70;;
70140;SDS011;74814;43.148;0.176;2024-02-21T04:41:29;0.70;;;0.70;;
70140;SDS011;74814;43.148;0.176;2024-02-21T04:43:55;0.75;;;0.75;;
70140;SDS011;74814;43.148;0.176;2024-02-21T04:46:20;0.60;;;0.60;;
70140;SDS011;74814;43.148;0.176;2024-02-21T04:48:45;0.70;;;0.70;;
70140;SDS011;74814;43.148;0.176;2024-02-21T04:51:11;0.70;;;0.70;;
70140;SDS011;74814;43.148;0.176;2024-02-21T04:53:36;0.70;;;0.70;;
70140;SDS011;74814;43.148;0.176;2024-02-21T04:56:01;0.70;;;0.70;;
70140;SDS011;74814;43.148;0.176;2024-02-21T04:58:27;0.73;;;0.73;;
70140;SDS011;74814;43.148;0.176;2024-02-21T05:00:52;0.70;;;0.70;;
70140;SDS011;74814;43.148;0.176;2024-02-21T05:03:19;0.63;;;0.63;;
70140;SDS011;74814;43.148;0.176;2024-02-21T05:05:44;0.70;;;0.70;;
70140;SDS011;74814;43.148;0.176;2024-02-21T05:08:10;0.60;;;0.60;;
70140;SDS011;74814;43.148;0.176;2024-02-21T05:10:35;0.65;;;0.65;;
70140;SDS011;74814;43.148;0.176;2024-02-21T05:13:00;0.60;;;0.60;;
70140;SDS011;74814;43.148;0.176;2024-02-21T05:15:26;0.60;;;0.60;;
70140;SDS011;74814;43.148;0.176;2024-02-21T05:17:51;0.60;;;0.60;;
70140;SDS011;74814;43.148;0.176;2024-02-21T05:20:16;0.60;;;0.60;;
70140;SDS011;74814;43.148;0.176;2024-02-21T05:22:42;0.60;;;0.60;;
70140;SDS011;74814;43.148;0.176;2024-02-21T05:25:07;1.60;;;1.50;;
70140;SDS011;74814;43.148;0.176;2024-02-21T05:27:32;0.63;;;0.63;;
70140;SDS011;74814;43.148;0.176;2024-02-21T05:29:58;0.50;;;0.50;;
70140;SDS011;74814;43.148;0.176;2024-02-21T05:32:23;0.60;;;0.60;;
70140;SDS011;74814;43.148;0.176;2024-02-21T05:34:48;0.60;;;0.60;;
70140;SDS011;74814;43.148;0.176;2024-02-21T05:37:14;0.70;;;0.70;;
70140;SDS011;74814;43.148;0.176;2024-02-21T05:39:40;0.60;;;0.60;;
70140;SDS011;74814;43.148;0.176;2024-02-21T05:42:05;0.60;;;0.60;;
70140;SDS011;74814;43.148;0.176;2024-02-21T05:44:31;0.60;;;0.60;;
70140;SDS011;74814;43.148;0.176;2024-02-21T05:46:56;0.70;;;0.70;;
70140;SDS011;74814;43.148;0.176;2024-02-21T05:49:21;0.60;;;0.60;;
70140;SDS011;74814;43.148;0.176;2024-02-21T05:51:46;0.70;;;0.70;;
70140;SDS011;74814;43.148;0.176;2024-02-21T05:54:12;0.60;;;0.60;;
70140;SDS011;74814;43.148;0.176;2024-02-21T05:56:37;0.70;;;0.70;;
70140;SDS011;74814;43.148;0.176;2024-02-21T05:59:02;0.60;;;0.60;;
70140;SDS011;74814;43.148;0.176;2024-02-21T06:01:27;0.70;;;0.70;;
70140;SDS011;74814;43.148;0.176;2024-02-21T06:03:53;0.60;;;0.60;;
70140;SDS011;74814;43.148;0.176;2024-02-21T06:06:18;0.68;;;0.68;;
70140;SDS011;74814;43.148;0.176;2024-02-21T06:08:43;0.70;;;0.70;;
70140;SDS011;74814;43.148;0.176;2024-02-21T06:11:08;0.60;;;0.60;;
70140;SDS011;74814;43.148;0.176;2024-02-21T06:13:37;0.75;;;0.70;;
70140;SDS011;74814;43.148;0.176;2024-02-21T06:16:03;0.60;;;0.60;;
70140;SDS011;74814;43.148;0.176;2024-02-21T06:18:28;0.60;;;0.60;;
70140;SDS011;74814;43.148;0.176;2024-02-21T06:20:53;0.82;;;0.80;;
70140;SDS011;74814;43.148;0.176;2024-02-21T06:23:18;0.65;;;0.65;;
70140;SDS011;74814;43.148;0.176;2024-02-21T06:25:44;0.60;;;0.60;;
70140;SDS011;74814;43.148;0.176;2024-02-21T06:28:09;0.60;;;0.60;;
70140;SDS011;74814;43.148;0.176;2024-02-21T06:30:35;0.60;;;0.60;;
70140;SDS011;74814;43.148;0.176;2024-02-21T06:33:00;0.60;;;0.60;;
70140;SDS011;74814;43.148;0.176;2024-02-21T06:35:27;0.60;;;0.60;;
70140;SDS011;74814;43.148;0.176;2024-02-21T06:37:52;0.70;;;0.70;;
70140;SDS011;74814;43.148;0.176;2024-02-21T06:40:20;0.70;;;0.70;;
70140;SDS011;74814;43.148;0.176;2024-02-21T06:42:46;0.70;;;0.70;;
70140;SDS011;74814;43.148;0.176;2024-02-21T06:45:11;0.60;;;0.60;;
70140;SDS011;74814;43.148;0.176;2024-02-21T06:47:36;0.70;;;0.70;;
70140;SDS011;74814;43.148;0.176;2024-02-21T06:50:02;0.60;;;0.60;;
70140;SDS011;74814;43.148;0.176;2024-02-21T06:52:27;0.60;;;0.60;;
70140;SDS011;74814;43.148;0.176;2024-02-21T06:54:53;0.60;;;0.60;;
70140;SDS011;74814;43.148;0.176;2024-02-21T06:57:18;0.60;;;0.60;;
70140;SDS011;74814;43.148;0.176;2024-02-21T06:59:43;0.60;;;0.60;;
70140;SDS011;74814;43.148;0.176;2024-02-21T07:02:08;0.60;;;0.60;;
70140;SDS011;74814;43.148;0.176;2024-02-21T07:04:34;0.50;;;0.50;;
70140;SDS011;74814;43.148;0.176;2024-02-21T07:06:59;0.70;;;0.70;;
70140;SDS011;74814;43.148;0.176;2024-02-21T07:09:24;1.55;;;1.17;;
70140;SDS011;74814;43.148;0.176;2024-02-21T07:11:49;0.50;;;0.50;;
70140;SDS011;74814;43.148;0.176;2024-02-21T07:14:15;0.60;;;0.60;;
70140;SDS011;74814;43.148;0.176;2024-02-21T07:16:43;0.57;;;0.57;;
70140;SDS011;74814;43.148;0.176;2024-02-21T07:19:08;0.73;;;0.63;;
70140;SDS011;74814;43.148;0.176;2024-02-21T07:21:33;0.55;;;0.55;;
70140;SDS011;74814;43.148;0.176;2024-02-21T07:23:59;0.50;;;0.50;;
70140;SDS011;74814;43.148;0.176;2024-02-21T07:26:24;0.90;;;0.60;;
70140;SDS011;74814;43.148;0.176;2024-02-21T07:28:49;0.60;;;0.60;;
70140;SDS011;74814;43.148;0.176;2024-02-21T07:31:14;1.95;;;1.85;;
70140;SDS011;74814;43.148;0.176;2024-02-21T07:33:40;0.50;;;0.50;;
70140;SDS011;74814;43.148;0.176;2024-02-21T07:36:06;0.40;;;0.40;;
70140;SDS011;74814;43.148;0.176;2024-02-21T07:38:31;0.40;;;0.40;;
70140;SDS011;74814;43.148;0.176;2024-02-21T07:40:56;0.40;;;0.40;;
70140;SDS011;74814;43.148;0.176;2024-02-21T07:43:22;0.52;;;0.52;;
70140;SDS011;74814;43.148;0.176;2024-02-21T07:45:47;0.40;;;0.40;;
70140;SDS011;74814;43.148;0.176;2024-02-21T07:48:12;0.40;;;0.40;;
70140;SDS011;74814;43.148;0.176;2024-02-21T07:50:37;0.40;;;0.40;;
70140;SDS011;74814;43.148;0.176;2024-02-21T07:53:03;0.30;;;0.30;;
70140;SDS011;74814;43.148;0.176;2024-02-21T07:55:28;0.32;;;0.32;;
70140;SDS011;74814;43.148;0.176;2024-02-21T07:57:53;0.40;;;0.40;;
70140;SDS011;74814;43.148;0.176;2024-02-21T08:00:19;0.30;;;0.30;;
70140;SDS011;74814;43.148;0.176;2024-02-21T08:02:48;0.30;;;0.30;;
70140;SDS011;74814;43.148;0.176;2024-02-21T08:05:13;0.30;;;0.30;;
70140;SDS011;74814;43.148;0.176;2024-02-21T08:07:38;0.20;;;0.20;;
70140;SDS011;74814;43.148;0.176;2024-02-21T08:10:04;0.28;;;0.28;;
70140;SDS011;74814;43.148;0.176;2024-02-21T08:12:29;0.30;;;0.30;;
70140;SDS011;74814;43.148;0.176;2024-02-21T08:14:54;0.20;;;0.20;;
70140;SDS011;74814;43.148;0.176;2024-02-21T08:17:20;0.53;;;0.40;;
70140;SDS011;74814;43.148;0.176;2024-02-21T08:19:45;0.30;;;0.30;;
70140;SDS011;74814;43.148;0.176;2024-02-21T08:22:10;0.35;;;0.35;;
70140;SDS011;74814;43.148;0.176;2024-02-21T08:24:35;0.20;;;0.20;;
70140;SDS011;74814;43.148;0.176;2024-02-21T08:27:00;0.33;;;0.33;;
70140;SDS011;74814;43.148;0.176;2024-02-21T08:29:26;0.30;;;0.30;;
70140;SDS011;74814;43.148;0.176;2024-02-21T08:31:51;0.43;;;0.40;;
70140;SDS011;74814;43.148;0.176;2024-02-21T08:34:16;0.20;;;0.20;;
70140;SDS011;74814;43.148;0.176;2024-02-21T08:36:42;0.22;;;0.22;;
70140;SDS011;74814;43.148;0.176;2024-02-21T08:39:08;0.20;;;0.20;;
70140;SDS011;74814;43.148;0.176;2024-02-21T08:41:34;0.82;;;0.28;;
70140;SDS011;74814;43.148;0.176;2024-02-21T08:44:00;0.20;;;0.20;;
70140;SDS011;74814;43.148;0.176;2024-02-21T08:46:25;0.20;;;0.20;;
70140;SDS011;74814;43.148;0.176;2024-02-21T08:48:51;0.20;;;0.20;;
70140;SDS011;74814;43.148;0.176;2024-02-21T08:51:17;0.45;;;0.30;;
70140;SDS011;74814;43.148;0.176;2024-02-21T08:53:43;0.20;;;0.20;;
70140;SDS011;74814;43.148;0.176;2024-02-21T08:56:08;0.20;;;0.20;;
70140;SDS011;74814;43.148;0.176;2024-02-21T08:58:34;0.20;;;0.20;;
70140;SDS011;74814;43.148;0.176;2024-02-21T09:01:00;0.20;;;0.20;;
70140;SDS011;74814;43.148;0.176;2024-02-21T09:03:25;0.20;;;0.20;;
70140;SDS011;74814;43.148;0.176;2024-02-21T09:05:51;0.20;;;0.20;;
70140;SDS011;74814;43.148;0.176;2024-02-21T09:08:16;0.20;;;0.20;;
70140;SDS011;74814;43.148;0.176;2024-02-21T09:10:41;0.20;;;0.20;;
70140;SDS011;74814;43.148;0.176;2024-02-21T09:13:06;0.20;;;0.20;;
70140;SDS011;74814;43.148;0.176;2024-02-21T09:15:33;1.27;;;0.30;;
70140;SDS011;74814;43.148;0.176;2024-02-21T09:17:58;0.90;;;0.45;;
70140;SDS011;74814;43.148;0.176;2024-02-21T09:20:24;0.20;;;0.20;;
70140;SDS011;74814;43.148;0.176;2024-02-21T09:22:49;0.43;;;0.43;;
70140;SDS011;74814;43.148;0.176;2024-02-21T09:25:14;0.32;;;0.32;;
70140;SDS011;74814;43.148;0.176;2024-02-21T09:27:40;0.22;;;0.22;;
70140;SDS011;74814;43.148;0.176;2024-02-21T09:30:05;0.20;;;0.20;;
70140;SDS011;74814;43.148;0.176;2024-02-21T09:32:31;0.20;;;0.20;;
70140;SDS011;74814;43.148;0.176;2024-02-21T09:34:57;0.20;;;0.20;;
70140;SDS011;74814;43.148;0.176;2024-02-21T09:37:23;0.30;;;0.30;;
70140;SDS011;74814;43.148;0.176;2024-02-21T09:39:48;0.20;;;0.20;;
70140;SDS011;74814;43.148;0.176;2024-02-21T09:42:15;0.40;;;0.35;;
70140;SDS011;74814;43.148;0.176;2024-02-21T09:44:44;0.30;;;0.30;;
70140;SDS011;74814;43.148;0.176;2024-02-21T09:47:12;0.55;;;0.45;;
70140;SDS011;74814;43.148;0.176;2024-02-21T09:49:42;0.30;;;0.30;;
70140;SDS011;74814;43.148;0.176;2024-02-21T09:52:07;0.20;;;0.20;;
70140;SDS011;74814;43.148;0.176;2024-02-21T09:54:33;1.95;;;0.40;;
70140;SDS011;74814;43.148;0.176;2024-02-21T09:56:59;0.85;;;0.45;;
70140;SDS011;74814;43.148;0.176;2024-02-21T09:59:24;0.20;;;0.20;;
70140;SDS011;74814;43.148;0.176;2024-02-21T10:01:50;0.20;;;0.20;;
70140;SDS011;74814;43.148;0.176;2024-02-21T10:04:16;0.20;;;0.20;;
70140;SDS011;74814;43.148;0.176;2024-02-21T10:06:41;0.20;;;0.20;;
70140;SDS011;74814;43.148;0.176;2024-02-21T10:09:06;0.20;;;0.20;;
70140;SDS011;74814;43.148;0.176;2024-02-21T10:11:32;0.20;;;0.20;;
70140;SDS011;74814;43.148;0.176;2024-02-21T10:14:05;0.20;;;0.20;;
70140;SDS011;74814;43.148;0.176;2024-02-21T10:16:31;0.60;;;0.20;;
70140;SDS011;74814;43.148;0.176;2024-02-21T10:18:56;0.20;;;0.20;;
70140;SDS011;74814;43.148;0.176;2024-02-21T10:21:22;0.10;;;0.10;;
70140;SDS011;74814;43.148;0.176;2024-02-21T10:23:50;0.10;;;0.10;;
70140;SDS011;74814;43.148;0.176;2024-02-21T10:26:16;0.77;;;0.50;;
70140;SDS011;74814;43.148;0.176;2024-02-21T10:28:42;0.20;;;0.20;;
70140;SDS011;74814;43.148;0.176;2024-02-21T10:31:11;0.10;;;0.10;;
70140;SDS011;74814;43.148;0.176;2024-02-21T10:33:37;0.10;;;0.10;;
70140;SDS011;74814;43.148;0.176;2024-02-21T10:36:06;0.20;;;0.20;;
70140;SDS011;74814;43.148;0.176;2024-02-21T10:38:31;0.10;;;0.10;;
70140;SDS011;74814;43.148;0.176;2024-02-21T10:40:58;0.10;;;0.10;;
70140;SDS011;74814;43.148;0.176;2024-02-21T10:43:24;0.20;;;0.20;;
70140;SDS011;74814;43.148;0.176;2024-02-21T10:45:50;0.20;;;0.20;;
70140;SDS011;74814;43.148;0.176;2024-02-21T10:48:21;0.65;;;0.40;;
70140;SDS011;74814;43.148;0.176;2024-02-21T10:50:57;0.47;;;0.35;;
70140;SDS011;74814;43.148;0.176;2024-02-21T10:53:29;1.67;;;0.45;;
70140;SDS011;74814;43.148;0.176;2024-02-21T10:56:04;0.90;;;0.50;;
70140;SDS011;74814;43.148;0.176;2024-02-21T10:58:31;0.20;;;0.20;;
70140;SDS011;74814;43.148;0.176;2024-02-21T11:00:56;0.63;;;0.38;;
70140;SDS011;74814;43.148;0.176;2024-02-21T11:03:22;3.13;;;0.68;;
70140;SDS011;74814;43.148;0.176;2024-02-21T11:05:48;0.20;;;0.20;;
70140;SDS011;74814;43.148;0.176;2024-02-21T11:08:13;2.05;;;0.30;;
70140;SDS011;74814;43.148;0.176;2024-02-21T11:10:38;0.40;;;0.40;;
70140;SDS011;74814;43.148;0.176;2024-02-21T11:13:09;0.30;;;0.30;;
70140;SDS011;74814;43.148;0.176;2024-02-21T11:15:34;0.73;;;0.55;;
70140;SDS011;74814;43.148;0.176;2024-02-21T11:17:59;0.35;;;0.20;;
70140;SDS011;74814;43.148;0.176;2024-02-21T11:20:37;0.50;;;0.43;;
70140;SDS011;74814;43.148;0.176;2024-02-21T11:23:02;0.25;;;0.25;;
70140;SDS011;74814;43.148;0.176;2024-02-21T11:25:28;0.55;;;0.50;;
70140;SDS011;74814;43.148;0.176;2024-02-21T11:28:02;0.30;;;0.30;;
70140;SDS011;74814;43.148;0.176;2024-02-21T11:30:31;0.30;;;0.30;;
70140;SDS011;74814;43.148;0.176;2024-02-21T11:33:05;0.80;;;0.40;;
70140;SDS011;74814;43.148;0.176;2024-02-21T11:35:31;0.20;;;0.20;;
70140;SDS011;74814;43.148;0.176;2024-02-21T11:38:07;6.60;;;0.90;;
70140;SDS011;74814;43.148;0.176;2024-02-21T11:40:33;0.30;;;0.30;;
70140;SDS011;74814;43.148;0.176;2024-02-21T11:42:59;0.65;;;0.40;;
70140;SDS011;74814;43.148;0.176;2024-02-21T11:45:25;0.40;;;0.35;;
70140;SDS011;74814;43.148;0.176;2024-02-21T11:47:51;0.50;;;0.50;;
70140;SDS011;74814;43.148;0.176;2024-02-21T11:50:16;0.20;;;0.20;;
70140;SDS011;74814;43.148;0.176;2024-02-21T11:52:41;0.20;;;0.20;;
70140;SDS011;74814;43.148;0.176;2024-02-21T11:55:06;4.50;;;0.70;;
70140;SDS011;74814;43.148;0.176;2024-02-21T11:57:33;0.70;;;0.30;;
70140;SDS011;74814;43.148;0.176;2024-02-21T12:00:10;0.30;;;0.30;;
70140;SDS011;74814;43.148;0.176;2024-02-21T12:02:35;0.20;;;0.20;;
70140;SDS011;74814;43.148;0.176;2024-02-21T12:05:00;0.20;;;0.20;;
70140;SDS011;74814;43.148;0.176;2024-02-21T12:07:26;0.40;;;0.40;;
70140;SDS011;74814;43.148;0.176;2024-02-21T12:09:53;0.52;;;0.50;;
70140;SDS011;74814;43.148;0.176;2024-02-21T12:12:19;0.43;;;0.30;;
70140;SDS011;74814;43.148;0.176;2024-02-21T12:14:45;0.43;;;0.40;;
70140;SDS011;74814;43.148;0.176;2024-02-21T12:17:10;0.20;;;0.20;;
70140;SDS011;74814;43.148;0.176;2024-02-21T12:19:35;0.40;;;0.40;;
70140;SDS011;74814;43.148;0.176;2024-02-21T12:22:00;0.98;;;0.52;;
70140;SDS011;74814;43.148;0.176;2024-02-21T12:24:26;0.20;;;0.20;;
70140;SDS011;74814;43.148;0.176;2024-02-21T12:26:52;0.20;;;0.20;;
70140;SDS011;74814;43.148;0.176;2024-02-21T12:29:18;0.40;;;0.40;;
70140;SDS011;74814;43.148;0.176;2024-02-21T12:31:43;0.50;;;0.40;;
70140;SDS011;74814;43.148;0.176;2024-02-21T12:34:08;1.60;;;0.60;;
70140;SDS011;74814;43.148;0.176;2024-02-21T12:36:35;0.77;;;0.60;;
70140;SDS011;74814;43.148;0.176;2024-02-21T12:39:01;0.40;;;0.40;;
70140;SDS011;74814;43.148;0.176;2024-02-21T12:41:28;0.43;;;0.43;;
70140;SDS011;74814;43.148;0.176;2024-02-21T12:43:54;0.40;;;0.40;;
70140;SDS011;74814;43.148;0.176;2024-02-21T12:46:21;0.47;;;0.43;;
70140;SDS011;74814;43.148;0.176;2024-02-21T12:48:46;0.30;;;0.30;;
70140;SDS011;74814;43.148;0.176;2024-02-21T12:51:11;0.47;;;0.47;;
70140;SDS011;74814;43.148;0.176;2024-02-21T12:53:37;0.32;;;0.32;;
70140;SDS011;74814;43.148;0.176;2024-02-21T12:56:02;0.77;;;0.40;;
70140;SDS011;74814;43.148;0.176;2024-02-21T12:58:30;0.30;;;0.30;;
70140;SDS011;74814;43.148;0.176;2024-02-21T13:00:56;0.40;;;0.40;;
70140;SDS011;74814;43.148;0.176;2024-02-21T13:03:21;0.32;;;0.32;;
70140;SDS011;74814;43.148;0.176;2024-02-21T13:05:47;0.28;;;0.28;;
70140;SDS011;74814;43.148;0.176;2024-02-21T13:08:13;0.22;;;0.22;;
70140;SDS011;74814;43.148;0.176;2024-02-21T13:10:38;5.90;;;1.42;;
70140;SDS011;74814;43.148;0.176;2024-02-21T13:13:03;0.30;;;0.30;;
70140;SDS011;74814;43.148;0.176;2024-02-21T13:15:29;0.45;;;0.43;;
70140;SDS011;74814;43.148;0.176;2024-02-21T13:17:55;0.30;;;0.30;;
70140;SDS011;74814;43.148;0.176;2024-02-21T13:20:21;0.30;;;0.30;;
70140;SDS011;74814;43.148;0.176;2024-02-21T13:22:46;0.60;;;0.50;;
70140;SDS011;74814;43.148;0.176;2024-02-21T13:25:12;0.47;;;0.40;;
70140;SDS011;74814;43.148;0.176;2024-02-21T13:27:40;0.55;;;0.55;;
70140;SDS011;74814;43.148;0.176;2024-02-21T13:30:05;0.85;;;0.63;;
70140;SDS011;74814;43.148;0.176;2024-02-21T13:32:32;0.50;;;0.50;;
70140;SDS011;74814;43.148;0.176;2024-02-21T13:34:57;0.30;;;0.30;;
70140;SDS011;74814;43.148;0.176;2024-02-21T13:37:25;0.30;;;0.30;;
70140;SDS011;74814;43.148;0.176;2024-02-21T13:39:51;0.30;;;0.30;;
70140;SDS011;74814;43.148;0.176;2024-02-21T13:42:17;0.20;;;0.20;;
70140;SDS011;74814;43.148;0.176;2024-02-21T13:44:42;0.22;;;0.22;;
70140;SDS011;74814;43.148;0.176;2024-02-21T13:47:08;0.73;;;0.40;;
70140;SDS011;74814;43.148;0.176;2024-02-21T13:49:33;0.30;;;0.30;;
70140;SDS011;74814;43.148;0.176;2024-02-21T13:51:59;0.38;;;0.35;;
70140;SDS011;74814;43.148;0.176;2024-02-21T13:54:25;0.20;;;0.20;;
70140;SDS011;74814;43.148;0.176;2024-02-21T13:56:50;1.00;;;0.60;;
70140;SDS011;74814;43.148;0.176;2024-02-21T13:59:15;0.20;;;0.20;;
70140;SDS011;74814;43.148;0.176;2024-02-21T14:01:41;0.38;;;0.38;;
70140;SDS011;74814;43.148;0.176;2024-02-21T14:04:06;1.95;;;0.55;;
70140;SDS011;74814;43.148;0.176;2024-02-21T14:06:32;1.10;;;0.50;;
70140;SDS011;74814;43.148;0.176;2024-02-21T14:08:57;0.30;;;0.30;;
70140;SDS011;74814;43.148;0.176;2024-02-21T14:11:22;0.40;;;0.40;;
70140;SDS011;74814;43.148;0.176;2024-02-21T14:13:48;1.70;;;0.55;;
70140;SDS011;74814;43.148;0.176;2024-02-21T14:16:13;1.33;;;0.80;;
70140;SDS011;74814;43.148;0.176;2024-02-21T14:18:39;0.85;;;0.50;;
70140;SDS011;74814;43.148;0.176;2024-02-21T14:21:06;1.50;;;0.65;;
70140;SDS011;74814;43.148;0.176;2024-02-21T14:23:31;2.05;;;1.15;;
70140;SDS011;74814;43.148;0.176;2024-02-21T14:25:58;0.65;;;0.60;;
70140;SDS011;74814;43.148;0.176;2024-02-21T14:28:23;0.63;;;0.50;;
70140;SDS011;74814;43.148;0.176;2024-02-21T14:30:49;1.08;;;0.65;;
70140;SDS011;74814;43.148;0.176;2024-02-21T14:33:18;1.60;;;0.77;;
70140;SDS011;74814;43.148;0.176;2024-02-21T14:35:43;1.13;;;0.50;;
70140;SDS011;74814;43.148;0.176;2024-02-21T14:38:09;1.67;;;0.75;;